Time;durP1;ratioP1;P1;durP2;ratioP2;P2;SDS_P1;SDS_P2;PMS_P1;PMS_P2;Temp;Humidity;BMP_temperature;BMP_pressure;BME280_temperature;BME280_humidity;BME280_pressure;Samples;Min_cycle;Max_cycle;Signal;HPM_P1;HPM_P2
2022/06/08 00:00:17;;;;;;;10.73;4.40;;;;;;;13.80;100.00;100224.19;5040211;28;20049;-83
2022/06/08 00:02:48;;;;;;;11.35;4.78;;;;;;;13.95;100.00;100232.94;5045971;28;20063;-83
2022/06/08 00:05:15;;;;;;;13.90;4.68;;;;;;;14.27;100.00;100231.03;5056003;28;20463;-83
2022/06/08 00:07:42;;;;;;;9.55;4.18;;;;;;;14.31;100.00;100213.25;5047507;28;20561;-83
2022/06/08 00:10:10;;;;;;;13.82;4.25;;;;;;;14.16;100.00;100207.13;5043324;28;20052;-83
2022/06/08 00:12:36;;;;;;;10.45;4.45;;;;;;;14.51;100.00;100228.66;5041194;28;20063;-84
2022/06/08 00:15:06;;;;;;;14.05;5.57;;;;;;;13.99;100.00;100151.09;5042712;28;20059;-84
2022/06/08 00:17:33;;;;;;;12.70;5.10;;;;;;;14.38;100.00;100212.78;5045064;28;20047;-83
2022/06/08 00:20:00;;;;;;;12.15;4.35;;;;;;;14.33;100.00;100192.94;5049148;28;20048;-83
2022/06/08 00:22:26;;;;;;;14.52;5.03;;;;;;;14.29;100.00;100202.81;5043016;28;20049;-83
2022/06/08 00:24:53;;;;;;;12.45;4.50;;;;;;;14.36;100.00;100211.16;5046350;28;20395;-83
2022/06/08 00:27:20;;;;;;;13.00;4.95;;;;;;;14.42;100.00;100166.84;5040947;28;20057;-83
2022/06/08 00:29:47;;;;;;;12.88;5.30;;;;;;;14.13;100.00;100152.88;5046157;28;20056;-83
2022/06/08 00:32:13;;;;;;;14.80;6.05;;;;;;;13.91;100.00;100194.59;5038683;28;20055;-83
2022/06/08 00:34:40;;;;;;;14.27;4.80;;;;;;;13.77;100.00;100180.47;5044996;28;20136;-83
2022/06/08 00:37:07;;;;;;;11.48;4.75;;;;;;;13.87;100.00;100159.75;5043647;28;20048;-83
2022/06/08 00:39:34;;;;;;;11.82;4.55;;;;;;;14.36;100.00;100206.75;5040553;28;20052;-83
2022/06/08 00:42:04;;;;;;;9.32;3.90;;;;;;;14.34;100.00;100199.88;5043530;28;20049;-83
2022/06/08 00:44:45;;;;;;;10.05;4.25;;;;;;;14.44;100.00;100195.72;5039051;28;20136;-83
2022/06/08 00:47:20;;;;;;;14.75;5.28;;;;;;;14.22;100.00;100199.69;5041528;28;20057;-83
2022/06/08 00:50:19;;;;;;;11.70;4.60;;;;;;;14.03;100.00;100138.59;5043036;28;20048;-83
2022/06/08 00:52:48;;;;;;;14.70;5.85;;;;;;;13.85;100.00;100145.81;5041186;28;20533;-83
2022/06/08 00:55:18;;;;;;;12.93;4.80;;;;;;;14.13;100.00;100160.78;5051534;28;20049;-83
2022/06/08 00:58:15;;;;;;;11.57;5.05;;;;;;;14.20;100.00;100156.84;5055125;28;20514;-83
2022/06/08 01:00:42;;;;;;;14.68;7.03;;;;;;;13.88;100.00;100164.03;5042202;28;20507;-83
2022/06/08 01:03:12;;;;;;;12.82;5.68;;;;;;;13.91;100.00;100147.22;5041317;28;20055;-83
2022/06/08 01:05:41;;;;;;;11.35;4.30;;;;;;;14.33;100.00;100162.16;5044766;28;20144;-83
2022/06/08 01:08:43;;;;;;;10.10;4.50;;;;;;;14.31;100.00;100156.16;5041530;28;20499;-83
2022/06/08 01:11:17;;;;;;;10.85;4.78;;;;;;;14.22;100.00;100130.41;5026198;28;20049;-83
2022/06/08 01:13:44;;;;;;;11.13;5.00;;;;;;;14.05;100.00;100111.22;5048132;28;20405;-83
2022/06/08 01:16:12;;;;;;;10.38;4.05;;;;;;;14.14;100.00;100140.56;5045377;28;20135;-83
2022/06/08 01:18:40;;;;;;;11.80;5.03;;;;;;;13.86;100.00;100134.34;5043777;28;20395;-83
2022/06/08 01:21:22;;;;;;;13.50;4.88;;;;;;;14.29;100.00;100134.34;5044996;28;20053;-83
2022/06/08 01:23:53;;;;;;;15.13;5.82;;;;;;;14.23;100.00;100138.19;5040340;28;20056;-83
2022/06/08 01:26:28;;;;;;;14.07;5.97;;;;;;;14.26;100.00;100128.44;5049091;28;20049;-83
2022/06/08 01:29:23;;;;;;;9.23;4.10;;;;;;;14.29;100.00;100122.94;5062885;28;20052;-83
2022/06/08 01:32:08;;;;;;;12.77;5.03;;;;;;;14.38;100.00;100127.66;5051125;28;20049;-83
2022/06/08 01:34:59;;;;;;;13.00;4.28;;;;;;;14.60;100.00;100137.69;5050609;28;20740;-83
2022/06/08 01:37:45;;;;;;;13.88;5.43;;;;;;;14.17;100.00;100121.94;5044130;28;20410;-83
2022/06/08 01:40:17;;;;;;;13.40;5.50;;;;;;;14.24;100.00;100128.53;5048040;28;20049;-84
2022/06/08 01:43:12;;;;;;;15.00;6.13;;;;;;;14.08;100.00;100126.00;5045467;28;20128;-83
2022/06/08 01:46:08;;;;;;;19.73;6.35;;;;;;;13.98;100.00;100102.00;5049242;28;20057;-83
2022/06/08 01:48:49;;;;;;;14.02;5.30;;;;;;;14.30;100.00;100112.31;5048917;28;20445;-83
2022/06/08 01:51:16;;;;;;;14.30;5.47;;;;;;;13.96;100.00;100110.97;5042776;28;20391;-83
2022/06/08 01:54:08;;;;;;;15.13;5.53;;;;;;;13.89;100.00;100112.28;5048462;28;20503;-83
2022/06/08 01:56:55;;;;;;;16.15;5.43;;;;;;;13.67;100.00;100113.59;5047085;28;21234;-83
2022/06/08 01:59:31;;;;;;;11.55;5.93;;;;;;;13.82;100.00;100115.28;5046194;28;20074;-83
2022/06/08 02:02:24;;;;;;;12.40;5.70;;;;;;;14.07;100.00;100097.97;5057291;28;20132;-83
2022/06/08 02:05:39;;;;;;;15.80;5.65;;;;;;;13.93;100.00;100105.88;5048956;28;20364;-83
2022/06/08 02:08:20;;;;;;;;;;;;;;;14.24;100.00;100096.94;5045300;28;20075;-83
2022/06/08 02:10:57;;;;;;;12.98;6.25;;;;;;;13.52;100.00;100078.53;5053360;28;19928;-83
2022/06/08 02:14:05;;;;;;;13.57;6.40;;;;;;;13.74;100.00;100085.97;5052873;28;20044;-83
2022/06/08 02:17:32;;;;;;;21.15;7.65;;;;;;;13.96;100.00;100082.00;5008586;28;20086;-81
2022/06/08 02:20:08;;;;;;;18.95;6.55;;;;;;;14.08;100.00;100049.66;5036973;28;20049;-82
2022/06/08 02:22:41;;;;;;;14.68;5.50;;;;;;;14.35;100.00;100073.38;5052294;28;20041;-81
2022/06/08 02:25:17;;;;;;;15.43;6.53;;;;;;;13.79;100.00;100075.16;5054488;28;20059;-83
2022/06/08 02:27:53;;;;;;;15.02;5.70;;;;;;;13.68;100.00;100047.69;5052474;28;20063;-81
2022/06/08 02:30:24;;;;;;;12.88;5.50;;;;;;;14.07;100.00;100066.38;5053944;28;20049;-82
2022/06/08 02:35:51;;;;;;;13.02;5.63;;;;;;;14.00;100.00;100052.75;5053074;28;20060;-82
2022/06/08 02:38:23;;;;;;;11.55;4.88;;;;;;;13.81;100.00;100055.72;5054271;28;20483;-82
2022/06/08 02:40:54;;;;;;;17.88;8.10;;;;;;;13.63;100.00;100051.56;5056180;28;20053;-83
2022/06/08 02:43:36;;;;;;;13.85;6.40;;;;;;;13.73;100.00;100043.97;5058184;28;20672;-83
2022/06/08 02:46:25;;;;;;;10.63;5.18;;;;;;;13.94;100.00;100044.41;5066796;28;20136;-84
2022/06/08 02:48:52;;;;;;;15.63;5.32;;;;;;;13.78;100.00;100012.97;5054129;28;20062;-83
2022/06/08 02:51:30;;;;;;;18.58;6.95;;;;;;;13.25;100.00;99995.06;5053651;28;20052;-83
2022/06/08 02:54:05;;;;;;;11.50;5.10;;;;;;;13.85;100.00;100041.41;5050329;28;20388;-83
2022/06/08 02:57:02;;;;;;;11.27;5.28;;;;;;;13.86;100.00;100024.69;5053245;28;20471;-83
2022/06/08 02:59:56;;;;;;;11.23;5.28;;;;;;;13.70;100.00;100015.22;5047624;28;20079;-83
2022/06/08 03:02:33;;;;;;;11.43;4.55;;;;;;;13.86;100.00;100026.47;5051211;28;20139;-83
2022/06/08 03:05:08;;;;;;;10.43;4.55;;;;;;;13.81;100.00;100028.53;5040029;28;20045;-83
2022/06/08 03:07:43;;;;;;;10.20;4.15;;;;;;;13.78;100.00;100007.69;5051974;28;20052;-83
2022/06/08 03:10:13;;;;;;;14.40;5.25;;;;;;;13.73;100.00;99992.19;5051793;28;20055;-83
2022/06/08 03:12:45;;;;;;;11.75;5.55;;;;;;;13.76;100.00;99973.59;5043458;28;20056;-83
2022/06/08 03:15:15;;;;;;;14.15;6.15;;;;;;;13.67;100.00;100009.19;5050803;28;20045;-83
2022/06/08 03:17:47;;;;;;;12.95;4.80;;;;;;;14.05;100.00;100008.56;5054041;28;20048;-83
2022/06/08 03:20:14;;;;;;;12.65;5.25;;;;;;;14.12;100.00;100005.56;5052733;28;20499;-83
2022/06/08 03:22:41;;;;;;;13.57;5.60;;;;;;;14.05;100.00;99981.41;5051184;28;20055;-83
2022/06/08 03:25:09;;;;;;;12.25;5.07;;;;;;;14.18;100.00;99994.63;5052106;28;20056;-83
2022/06/08 03:27:39;;;;;;;12.10;6.00;;;;;;;13.86;100.00;99990.50;5052740;28;20048;-83
2022/06/08 03:30:07;;;;;;;15.57;5.55;;;;;;;13.62;100.00;99977.06;5052840;28;20053;-83
2022/06/08 03:32:34;;;;;;;10.50;5.30;;;;;;;13.68;100.00;99984.56;5048214;28;20127;-83
2022/06/08 03:35:01;;;;;;;11.63;5.18;;;;;;;13.67;100.00;99968.91;5052893;28;20080;-83
2022/06/08 03:37:28;;;;;;;11.77;5.40;;;;;;;13.36;100.00;99988.34;5052104;28;20226;-83
2022/06/08 03:39:54;;;;;;;13.13;5.20;;;;;;;13.44;100.00;99929.09;5052948;28;20045;-83
2022/06/08 03:42:21;;;;;;;12.35;4.20;;;;;;;13.99;100.00;99961.59;5052417;28;20059;-82
2022/06/08 03:44:48;;;;;;;10.63;4.90;;;;;;;14.10;100.00;99974.06;5053291;28;20139;-83
2022/06/08 03:47:20;;;;;;;12.15;4.72;;;;;;;14.13;100.00;99973.00;5051410;28;20045;-83
2022/06/08 03:49:49;;;;;;;12.15;4.75;;;;;;;13.89;100.00;99954.38;5051663;28;20118;-83
2022/06/08 03:52:22;;;;;;;12.65;4.97;;;;;;;13.78;100.00;99976.13;5051034;28;20059;-83
2022/06/08 03:54:54;;;;;;;14.18;5.03;;;;;;;13.67;100.00;99977.63;5039987;28;20047;-83
2022/06/08 03:57:22;;;;;;;12.55;5.82;;;;;;;13.35;100.00;99945.47;5051693;28;20498;-83
2022/06/08 03:59:49;;;;;;;11.05;4.82;;;;;;;13.40;100.00;99958.31;5051826;28;20052;-83
2022/06/08 04:02:16;;;;;;;11.32;4.80;;;;;;;13.50;100.00;99946.28;5049528;28;20048;-83
2022/06/08 04:04:43;;;;;;;11.70;5.45;;;;;;;13.60;100.00;99941.31;5036717;28;20487;-83
2022/06/08 04:07:10;;;;;;;10.85;4.72;;;;;;;13.90;100.00;99969.22;5045373;28;20049;-83
2022/06/08 04:09:37;;;;;;;12.73;5.28;;;;;;;13.39;100.00;99920.66;5049761;28;20492;-83
2022/06/08 04:12:05;;;;;;;14.10;5.38;;;;;;;13.49;100.00;99981.41;5050709;28;20055;-83
2022/06/08 04:14:31;;;;;;;17.70;6.30;;;;;;;13.13;100.00;99947.69;5052141;28;20055;-83
2022/06/08 04:16:58;;;;;;;11.57;5.00;;;;;;;13.69;100.00;99993.31;5050683;28;20045;-83
2022/06/08 04:19:25;;;;;;;12.65;5.57;;;;;;;13.62;100.00;99979.72;5049878;28;20063;-83
2022/06/08 04:21:52;;;;;;;16.20;6.10;;;;;;;13.68;100.00;99981.09;5048367;28;20045;-83
2022/06/08 04:24:20;;;;;;;9.75;4.63;;;;;;;13.29;100.00;99959.78;5050297;28;20059;-83
2022/06/08 04:26:47;;;;;;;14.05;5.18;;;;;;;13.78;100.00;99973.50;5050642;28;20049;-83
2022/06/08 04:29:15;;;;;;;13.85;5.10;;;;;;;13.79;100.00;99983.94;5037263;28;20060;-83
2022/06/08 04:31:42;;;;;;;13.75;5.75;;;;;;;13.82;100.00;99981.06;5050348;28;20128;-83
2022/06/08 04:34:10;;;;;;;15.38;5.85;;;;;;;13.52;100.00;99988.25;5049823;28;20049;-83
2022/06/08 04:36:41;;;;;;;14.98;5.13;;;;;;;13.56;100.00;99974.81;5050966;28;20049;-82
2022/06/08 04:39:11;;;;;;;11.60;5.22;;;;;;;13.68;100.00;99963.53;5059061;28;20404;-83
2022/06/08 04:41:38;;;;;;;12.75;5.72;;;;;;;13.58;100.00;99964.19;5051261;28;20052;-84
2022/06/08 04:44:05;;;;;;;12.27;4.75;;;;;;;13.44;100.00;99959.81;5047564;28;20053;-83
2022/06/08 04:46:32;;;;;;;18.30;6.72;;;;;;;13.73;100.00;99957.16;5050602;28;20147;-83
2022/06/08 04:48:59;;;;;;;14.00;6.47;;;;;;;13.72;100.00;99995.75;5051934;28;20056;-83
2022/06/08 04:51:27;;;;;;;11.77;5.68;;;;;;;13.57;100.00;99942.31;5050582;28;20063;-83
2022/06/08 04:53:53;;;;;;;12.70;5.35;;;;;;;13.88;100.00;99974.56;5036950;28;20049;-83
2022/06/08 04:56:20;;;;;;;12.05;7.05;;;;;;;13.52;100.00;99981.22;5051130;28;20395;-83
2022/06/08 04:58:47;;;;;;;14.35;5.55;;;;;;;13.27;100.00;99947.66;5054814;28;20068;-83
2022/06/08 05:01:14;;;;;;;14.25;5.72;;;;;;;13.55;100.00;99988.09;5051259;28;20056;-83
2022/06/08 05:03:42;;;;;;;13.52;4.65;;;;;;;13.76;100.00;99964.84;5040923;28;20053;-83
2022/06/08 05:06:09;;;;;;;11.60;4.85;;;;;;;13.76;100.00;99986.75;5046430;28;20067;-83
2022/06/08 05:08:36;;;;;;;13.13;5.05;;;;;;;13.74;100.00;99971.97;5050630;28;20072;-84
2022/06/08 05:11:05;;;;;;;11.93;5.03;;;;;;;13.95;100.00;99983.81;5052279;28;20052;-83
2022/06/08 05:13:32;;;;;;;11.48;4.72;;;;;;;13.86;100.00;99955.41;5049612;28;20424;-83
2022/06/08 05:15:59;;;;;;;15.77;7.50;;;;;;;13.34;100.00;99935.03;5050152;28;20052;-84
2022/06/08 05:18:26;;;;;;;13.93;6.15;;;;;;;13.35;100.00;99916.53;5052045;28;20052;-83
2022/06/08 05:20:54;;;;;;;12.15;4.70;;;;;;;14.20;100.00;99966.41;5051826;28;20083;-83
2022/06/08 05:23:27;;;;;;;14.30;7.03;;;;;;;13.79;100.00;99973.41;5048488;28;20114;-83
2022/06/08 05:25:54;;;;;;;13.85;6.25;;;;;;;13.51;100.00;99955.88;5041972;28;20224;-82
2022/06/08 05:28:21;;;;;;;13.77;5.35;;;;;;;13.84;100.00;99966.03;5055670;28;20045;-83
2022/06/08 05:30:49;;;;;;;14.38;6.43;;;;;;;13.75;100.00;99966.63;5043398;28;20044;-82
2022/06/08 05:33:16;;;;;;;13.43;6.43;;;;;;;13.82;100.00;99973.19;5043112;28;20056;-84
2022/06/08 05:35:44;;;;;;;12.13;5.45;;;;;;;14.02;100.00;99973.69;5042263;28;20052;-84
2022/06/08 05:38:11;;;;;;;14.02;5.10;;;;;;;13.93;100.00;99951.44;5044570;28;20060;-84
2022/06/08 05:40:38;;;;;;;14.38;6.50;;;;;;;13.80;100.00;99963.72;5042849;28;20096;-84
2022/06/08 05:43:08;;;;;;;12.85;5.22;;;;;;;13.50;100.00;99950.69;5041774;28;20060;-84
2022/06/08 05:45:35;;;;;;;14.15;6.88;;;;;;;13.63;100.00;99963.00;5040944;28;20065;-84
2022/06/08 05:48:02;;;;;;;15.93;6.53;;;;;;;14.26;100.00;99957.28;5044181;28;20041;-84
2022/06/08 05:50:29;;;;;;;13.80;6.40;;;;;;;14.09;100.00;99955.72;5038718;28;20419;-83
2022/06/08 05:52:56;;;;;;;17.77;7.15;;;;;;;13.85;100.00;99951.94;5040249;28;20049;-84
2022/06/08 05:55:24;;;;;;;12.82;6.30;;;;;;;13.88;100.00;99940.38;5043315;28;20049;-84
2022/06/08 05:57:51;;;;;;;10.32;4.97;;;;;;;13.95;100.00;99948.72;5043541;28;20045;-84
2022/06/08 06:00:22;;;;;;;16.27;6.53;;;;;;;13.72;100.00;99937.03;5049629;28;20128;-84
2022/06/08 06:02:50;;;;;;;13.65;6.20;;;;;;;13.71;100.00;99944.09;5036336;28;20049;-84
2022/06/08 06:05:20;;;;;;;13.18;5.38;;;;;;;13.77;100.00;99946.31;5038949;28;20041;-81
2022/06/08 06:07:47;;;;;;;13.95;5.32;;;;;;;14.13;100.00;99946.69;5045584;28;20407;-81
2022/06/08 06:10:15;;;;;;;12.13;5.55;;;;;;;13.99;100.00;99960.75;5044104;28;20048;-81
2022/06/08 06:12:42;;;;;;;12.90;5.32;;;;;;;14.05;100.00;99941.94;5039662;28;20049;-81
2022/06/08 06:15:11;;;;;;;14.77;5.70;;;;;;;14.15;100.00;99942.19;5048562;28;20108;-80
2022/06/08 06:17:38;;;;;;;11.82;5.53;;;;;;;13.81;100.00;99933.81;5046577;28;20063;-79
2022/06/08 06:20:06;;;;;;;14.07;6.70;;;;;;;14.08;100.00;99943.50;5046911;28;20059;-82
2022/06/08 06:22:35;;;;;;;15.98;6.07;;;;;;;14.24;100.00;99916.09;5043145;28;20403;-79
2022/06/08 06:25:04;;;;;;;11.65;5.43;;;;;;;14.38;100.00;99938.03;5048902;28;20099;-79
2022/06/08 06:27:31;;;;;;;12.15;5.40;;;;;;;14.39;100.00;99931.81;5049457;28;20047;-79
2022/06/08 06:29:58;;;;;;;11.95;5.43;;;;;;;14.50;100.00;99931.97;5048704;28;20040;-79
2022/06/08 06:32:35;;;;;;;10.77;5.32;;;;;;;14.29;100.00;99917.56;5040164;28;20128;-79
2022/06/08 06:35:04;;;;;;;12.23;5.40;;;;;;;14.36;100.00;99921.47;5048520;28;20040;-79
2022/06/08 06:37:31;;;;;;;17.15;6.78;;;;;;;14.19;100.00;99912.06;5047925;28;20045;-80
2022/06/08 06:39:58;;;;;;;19.15;7.55;;;;;;;14.16;100.00;99913.09;5061116;28;20049;-80
2022/06/08 06:42:29;;;;;;;13.75;6.50;;;;;;;14.45;100.00;99923.53;5040757;28;20053;-80
2022/06/08 06:44:55;;;;;;;18.75;7.97;;;;;;;14.68;100.00;99927.28;5047594;28;20381;-81
2022/06/08 06:47:22;;;;;;;11.13;5.88;;;;;;;14.41;100.00;99914.97;5048343;28;20051;-80
2022/06/08 06:49:49;;;;;;;11.45;5.28;;;;;;;14.64;100.00;99923.13;5044030;28;20053;-80
2022/06/08 06:52:18;;;;;;;11.23;5.35;;;;;;;14.73;100.00;99916.41;5045158;28;20056;-79
2022/06/08 06:54:45;;;;;;;20.02;6.90;;;;;;;14.93;100.00;99925.59;5042429;28;20079;-80
2022/06/08 06:57:12;;;;;;;16.98;7.13;;;;;;;14.85;100.00;99918.22;5041274;28;20057;-80
2022/06/08 06:59:39;;;;;;;17.08;5.78;;;;;;;14.67;100.00;99922.09;5035532;28;20057;-80
2022/06/08 07:02:11;;;;;;;11.85;4.75;;;;;;;14.75;100.00;99917.16;5048067;28;20481;-80
2022/06/08 07:04:38;;;;;;;15.90;6.10;;;;;;;14.79;100.00;99923.91;5052971;28;20052;-81
2022/06/08 07:07:06;;;;;;;12.15;5.80;;;;;;;14.78;100.00;99919.56;5049046;28;20403;-80
2022/06/08 07:09:33;;;;;;;15.43;6.15;;;;;;;14.54;100.00;99927.34;5049693;28;20079;-81
2022/06/08 07:12:01;;;;;;;13.65;5.78;;;;;;;14.48;100.00;99915.41;5049775;28;20045;-80
2022/06/08 07:14:28;;;;;;;14.65;6.38;;;;;;;14.35;100.00;99920.63;5057520;28;20535;-80
2022/06/08 07:16:55;;;;;;;11.80;5.30;;;;;;;14.62;100.00;99925.03;5050875;28;20527;-81
2022/06/08 07:19:22;;;;;;;11.80;5.65;;;;;;;14.69;100.00;99912.31;5051974;28;20052;-80
2022/06/08 07:21:49;;;;;;;14.73;6.47;;;;;;;14.63;100.00;99916.19;5050076;28;20056;-80
2022/06/08 07:24:31;;;;;;;15.68;5.63;;;;;;;14.61;100.00;99928.63;5049818;28;20072;-81
2022/06/08 07:26:59;;;;;;;13.93;5.47;;;;;;;14.48;100.00;99917.19;5050679;28;20361;-80
2022/06/08 07:29:26;;;;;;;18.10;7.45;;;;;;;14.50;100.00;99923.19;5051854;28;20051;-80
2022/06/08 07:31:53;;;;;;;13.77;6.15;;;;;;;14.56;100.00;99920.16;5048694;28;20131;-81
2022/06/08 07:34:21;;;;;;;12.38;5.85;;;;;;;14.34;100.00;99932.13;5038363;28;20463;-84
2022/06/08 07:36:48;;;;;;;14.73;6.03;;;;;;;14.33;100.00;99904.09;5050918;28;20130;-84
2022/06/08 07:39:15;;;;;;;15.70;6.63;;;;;;;14.39;100.00;99908.13;5051192;28;20052;-84
2022/06/08 07:41:43;;;;;;;14.82;6.53;;;;;;;14.17;100.00;99893.75;5050509;28;20056;-84
2022/06/08 07:44:11;;;;;;;13.43;6.18;;;;;;;14.16;100.00;99912.28;5051398;28;20045;-85
2022/06/08 07:46:38;;;;;;;14.02;5.55;;;;;;;14.66;100.00;99930.94;5048156;28;20106;-84
2022/06/08 07:51:54;;;;;;;15.13;6.40;;;;;;;14.20;100.00;99874.25;5048340;28;20792;-84
2022/06/08 07:54:23;;;;;;;19.85;7.13;;;;;;;14.78;100.00;99924.84;5038833;28;20053;-84
2022/06/08 07:56:53;;;;;;;14.77;5.55;;;;;;;14.68;100.00;99932.53;5046711;28;20048;-82
2022/06/08 07:59:25;;;;;;;13.90;5.95;;;;;;;14.27;100.00;99890.50;5066594;28;20045;-83
2022/06/08 08:01:52;;;;;;;10.40;4.53;;;;;;;14.66;100.00;99908.09;5049661;28;20049;-83
2022/06/08 08:04:20;;;;;;;17.42;5.38;;;;;;;14.69;100.00;99912.31;5050614;28;20339;-83
2022/06/08 08:06:47;;;;;;;12.70;4.90;;;;;;;14.58;100.00;99858.53;5047261;28;20048;-83
2022/06/08 08:09:20;;;;;;;18.00;5.82;;;;;;;15.18;100.00;99920.31;5051328;28;20475;-83
2022/06/08 08:11:50;;;;;;;15.57;6.07;;;;;;;15.14;100.00;99920.66;5050029;28;20113;-83
2022/06/08 08:14:22;;;;;;;12.38;5.40;;;;;;;14.79;100.00;99919.47;5050137;28;20505;-83
2022/06/08 08:16:50;;;;;;;13.93;6.33;;;;;;;14.91;100.00;99914.31;5050917;28;20056;-83
2022/06/08 08:19:19;;;;;;;15.70;6.57;;;;;;;14.41;100.00;99899.19;5050289;28;20381;-83
2022/06/08 08:21:47;;;;;;;14.68;6.95;;;;;;;14.63;100.00;99916.19;5050919;28;20072;-83
2022/06/08 08:24:14;;;;;;;13.95;5.03;;;;;;;15.00;100.00;99911.88;5050855;28;20055;-83
2022/06/08 08:26:44;;;;;;;15.00;6.57;;;;;;;14.82;100.00;99897.34;5043392;28;20136;-83
2022/06/08 08:29:13;;;;;;;17.08;5.93;;;;;;;15.06;100.00;99902.72;5043015;28;20490;-84
2022/06/08 08:31:41;;;;;;;16.27;5.57;;;;;;;14.84;100.00;99899.84;5050319;28;20049;-83
2022/06/08 08:34:08;;;;;;;18.33;5.80;;;;;;;15.05;100.00;99902.81;5048602;28;20458;-84
2022/06/08 08:36:35;;;;;;;17.27;5.50;;;;;;;15.12;100.00;99882.97;5047358;28;20053;-83
2022/06/08 08:39:03;;;;;;;16.00;6.30;;;;;;;14.73;100.00;99892.69;5051970;28;20455;-84
2022/06/08 08:44:28;;;;;;;18.95;6.30;;;;;;;15.16;100.00;99902.91;5049516;28;20045;-83
2022/06/08 08:47:33;;;;;;;15.75;5.32;;;;;;;15.13;100.00;99909.25;5050189;28;20635;-83
2022/06/08 08:50:10;;;;;;;14.88;5.57;;;;;;;15.27;100.00;99870.53;5048197;28;20040;-84
2022/06/08 08:52:47;;;;;;;13.07;5.30;;;;;;;15.21;100.00;99881.50;5049292;28;20049;-84
2022/06/08 08:55:24;;;;;;;13.52;5.43;;;;;;;15.35;100.00;99897.19;5049829;28;20056;-84
2022/06/08 08:58:14;;;;;;;17.10;6.03;;;;;;;15.06;100.00;99902.72;5048197;28;20052;-84
2022/06/08 09:00:54;;;;;;;16.48;6.45;;;;;;;15.33;100.00;99886.75;5050427;28;20075;-84
2022/06/08 09:03:21;;;;;;;15.98;6.63;;;;;;;15.15;100.00;99898.59;5046686;28;20059;-84
2022/06/08 09:05:51;;;;;;;14.80;5.90;;;;;;;15.05;100.00;99893.13;5050826;28;20045;-84
2022/06/08 09:08:20;;;;;;;12.60;6.22;;;;;;;14.99;100.00;99894.38;5050474;28;20049;-84
2022/06/08 09:10:50;;;;;;;14.55;5.25;;;;;;;15.28;100.00;99891.50;5051532;28;20049;-84
2022/06/08 09:13:31;;;;;;;17.50;5.68;;;;;;;15.16;100.00;99882.66;5047724;28;20107;-83
2022/06/08 09:15:59;;;;;;;14.63;5.53;;;;;;;15.14;100.00;99894.28;5050106;28;20064;-83
2022/06/08 09:18:36;;;;;;;11.80;5.55;;;;;;;15.36;100.00;99881.25;5051531;28;20501;-83
2022/06/08 09:21:21;;;;;;;14.93;5.28;;;;;;;15.09;100.00;99894.59;5050856;28;20410;-83
2022/06/08 09:24:07;;;;;;;19.08;6.40;;;;;;;15.04;100.00;99874.78;5036443;28;20045;-83
2022/06/08 09:26:40;;;;;;;12.13;5.57;;;;;;;15.30;100.00;99886.13;5050884;28;20053;-81
2022/06/08 09:29:15;;;;;;;12.40;5.55;;;;;;;15.07;100.00;99877.19;5050639;28;20098;-83
2022/06/08 09:31:42;;;;;;;12.23;5.18;;;;;;;15.19;100.00;99874.53;5050206;28;20056;-83
2022/06/08 09:34:28;;;;;;;15.32;6.00;;;;;;;15.19;100.00;99884.22;5050815;28;20516;-83
2022/06/08 09:37:04;;;;;;;15.65;5.80;;;;;;;15.00;100.00;99887.34;5049820;28;20063;-82
2022/06/08 09:39:32;;;;;;;15.15;6.13;;;;;;;15.09;100.00;99862.13;5048899;28;20137;-83
2022/06/08 09:42:05;;;;;;;13.60;5.40;;;;;;;15.41;100.00;99883.56;5048280;28;20055;-83
2022/06/08 09:44:45;;;;;;;15.38;5.70;;;;;;;14.95;100.00;99860.44;5048057;28;20049;-83
2022/06/08 09:53:38;;;;;;;17.25;5.63;;;;;;;15.44;100.00;99877.22;5049763;28;20045;-83
2022/06/08 09:56:10;;;;;;;16.10;5.82;;;;;;;15.21;100.00;99876.22;5053651;28;20045;-83
2022/06/08 09:58:52;;;;;;;16.35;5.65;;;;;;;15.25;100.00;99877.69;5053686;28;20165;-83
2022/06/08 10:01:31;;;;;;;13.98;5.45;;;;;;;15.32;100.00;99889.50;5053534;28;20076;-83
2022/06/08 10:04:13;;;;;;;13.15;4.97;;;;;;;15.33;100.00;99885.91;5048744;28;20049;-83
2022/06/08 10:06:52;;;;;;;13.00;4.97;;;;;;;15.43;100.00;99875.53;5046139;28;20134;-83
2022/06/08 10:09:22;;;;;;;13.88;4.43;;;;;;;15.55;100.00;99882.59;5044593;28;20055;-83
2022/06/08 10:12:07;;;;;;;9.93;4.20;;;;;;;15.52;100.00;99878.34;5051329;28;20139;-83
2022/06/08 10:14:41;;;;;;;12.95;4.72;;;;;;;15.49;100.00;99883.00;5051052;28;20056;-82
2022/06/08 10:17:18;;;;;;;12.63;5.47;;;;;;;15.22;100.00;99878.75;5052515;28;20479;-81
2022/06/08 10:20:12;;;;;;;10.93;5.20;;;;;;;15.44;100.00;99878.09;5052860;28;20047;-83
2022/06/08 10:22:42;;;;;;;;;;;;;;;15.72;100.00;99874.28;5052241;28;20559;-82
2022/06/08 10:25:18;;;;;;;16.13;5.05;;;;;;;15.69;100.00;99879.78;5052904;28;19924;-83
2022/06/08 10:28:02;;;;;;;15.43;5.25;;;;;;;15.52;100.00;99885.44;5049515;28;20041;-83
2022/06/08 10:31:05;;;;;;;15.18;5.72;;;;;;;15.44;100.00;99880.72;5052653;28;20049;-83
2022/06/08 10:33:49;;;;;;;13.57;6.05;;;;;;;15.42;100.00;99887.03;5051248;28;20706;-83
2022/06/08 10:36:17;;;;;;;14.50;4.35;;;;;;;15.29;100.00;99873.88;5040262;28;20052;-83
2022/06/08 10:38:45;;;;;;;18.90;5.63;;;;;;;15.23;100.00;99872.53;5053488;28;20562;-83
2022/06/08 10:42:39;;;;;;;18.58;4.68;;;;;;;15.21;100.00;99886.75;5044343;28;20044;-83
2022/06/08 10:44:01;;;;;;;12.63;4.30;;;;;;;15.14;100.00;99860.00;5052887;28;20052;-83
2022/06/08 10:46:45;;;;;;;11.32;4.35;;;;;;;15.36;100.00;99886.53;5051844;28;20055;-83
2022/06/08 10:49:40;;;;;;;14.27;4.40;;;;;;;15.18;100.00;99856.19;5052370;28;20127;-83
2022/06/08 10:52:40;;;;;;;17.45;4.80;;;;;;;15.30;100.00;99891.41;5037240;28;20064;-83
2022/06/08 10:55:13;;;;;;;14.90;4.75;;;;;;;15.36;100.00;99881.25;5041091;28;20049;-83
2022/06/08 10:58:03;;;;;;;16.92;6.10;;;;;;;15.02;100.00;99885.44;5049908;28;20053;-83
2022/06/08 11:00:54;;;;;;;16.88;5.07;;;;;;;15.37;100.00;99874.19;5052949;28;20152;-83
2022/06/08 11:03:31;;;;;;;16.70;4.07;;;;;;;15.62;100.00;99878.53;5044767;28;20137;-83
2022/06/08 11:05:58;;;;;;;11.48;5.10;;;;;;;14.92;100.00;99853.56;5045909;28;20057;-83
2022/06/08 11:08:44;;;;;;;14.88;4.22;;;;;;;15.56;100.00;99882.47;5051865;28;20041;-83
2022/06/08 11:11:11;;;;;;;14.65;5.00;;;;;;;15.31;100.00;99866.69;5051459;28;20051;-83
2022/06/08 11:13:51;;;;;;;15.60;4.18;;;;;;;15.67;100.00;99873.78;5051341;28;20074;-83
2022/06/08 11:16:20;;;;;;;18.17;5.10;;;;;;;15.56;100.00;99877.19;5051544;28;20052;-83
2022/06/08 11:18:54;;;;;;;13.02;4.97;;;;;;;15.35;100.00;99865.53;5052464;28;20045;-83
2022/06/08 11:21:36;;;;;;;12.80;4.25;;;;;;;15.62;100.00;99852.16;5053985;28;20053;-83
2022/06/08 11:24:28;;;;;;;15.65;4.85;;;;;;;15.63;100.00;99872.28;5036805;28;20052;-83
2022/06/08 11:27:01;;;;;;;10.25;3.90;;;;;;;15.34;100.00;99884.97;5051211;28;20577;-83
2022/06/08 11:29:30;;;;;;;13.45;4.63;;;;;;;15.17;100.00;99881.72;5052873;28;20138;-83
2022/06/08 11:31:57;;;;;;;14.45;4.45;;;;;;;15.57;100.00;99867.47;5048886;28;20139;-82
2022/06/08 11:34:59;;;;;;;10.40;4.05;;;;;;;15.24;100.00;99863.66;5052006;28;20060;-83
2022/06/08 11:37:38;;;;;;;11.82;4.22;;;;;;;15.30;100.00;99884.34;5051693;28;20048;-83
2022/06/08 11:40:19;;;;;;;12.73;5.00;;;;;;;15.48;100.00;99887.44;5043199;28;20497;-83
2022/06/08 11:42:55;;;;;;;13.55;5.65;;;;;;;14.97;100.00;99869.09;5050554;28;20055;-83
2022/06/08 11:45:47;;;;;;;16.75;4.53;;;;;;;15.38;100.00;99879.34;5043663;28;20059;-84
2022/06/08 11:48:24;;;;;;;12.50;5.22;;;;;;;15.62;100.00;99880.34;5039210;28;20049;-83
2022/06/08 11:50:59;;;;;;;14.05;4.13;;;;;;;15.16;100.00;99884.47;5052114;28;20045;-84
2022/06/08 11:53:35;;;;;;;12.27;4.65;;;;;;;15.33;100.00;99889.41;5042172;28;20053;-83
2022/06/08 11:56:21;;;;;;;11.90;4.03;;;;;;;15.03;100.00;99867.81;5049032;28;20059;-83
2022/06/08 11:58:54;;;;;;;13.93;4.43;;;;;;;15.35;100.00;99887.50;5051767;28;20129;-83